Latest Weather Observations for Leonora Airport

IDW60801

Issued at 1:32 pm WST Sunday 7 February 2016 (issued every 30 minutes, with the page automatically refreshed every 10 minutes)

About weather observations | Map of weather stations | Latest weather observations for WA | Other Formats
Station Details ID: 012241 Name: LEONORA AERO Lat: -28.88 Lon: 121.32 Height: 370.0 m
Data from the previous 72 hours. | See also: Recent months at Leonora Airport
Date/Time
WST
Temp
°C
App
Temp
°C
Dew
Point
Rel
Hum
%
Delta-T
°C
Wind Press
QNH
hPa
Press
MSL
hPa
Rain
since 9 am
mm
Dir
 
Spd
km/h
Gust
km/h
Spd
kts
Gust
kts
07/01:30pm 34.5 29.3 -0.2 11 17.3 E 17 32 9 17 1016.2 1013.6 0.0
07/01:00pm 34.5 30.8 2.1 13 16.8 ESE 11 24 6 13 1016.5 1013.9 0.0
07/12:30pm 34.8 29.8 1.2 12 17.2 ENE 17 26 9 14 1016.9 1014.4 0.0
07/12:00pm 33.3 28.2 3.2 15 15.7 E 19 30 10 16 1017.1 1014.6 0.0
07/11:30am 32.5 27.9 3.5 16 15.2 E 17 28 9 15 1017.5 1015.0 0.0
07/11:00am 32.2 27.3 4.1 17 14.8 E 19 28 10 15 1017.8 1015.3 0.0
07/10:30am 31.5 26.9 5.8 20 13.9 E 19 30 10 16 1018.1 1015.6 0.0
07/10:00am 31.0 26.5 6.8 22 13.2 ENE 20 30 11 16 1018.4 1015.8 0.0
07/09:30am 30.5 25.2 7.0 23 12.9 ENE 24 32 13 17 1018.6 1016.0 0.0
07/09:00am 29.5 25.0 6.8 24 12.3 ENE 20 28 11 15 1018.6 1016.0 0.0
07/08:30am 28.7 24.6 7.9 27 11.5 ENE 19 26 10 14 1018.5 1015.9 0.0
07/08:00am 27.3 23.3 8.2 30 10.5 ENE 19 28 10 15 1018.6 1016.0 0.0
07/07:30am 25.5 21.9 8.5 34 9.3 ENE 17 26 9 14 1018.4 1015.8 0.0
07/07:00am 24.3 21.7 9.5 39 8.2 E 13 17 7 9 1018.3 1015.7 0.0
07/06:30am 22.6 20.5 9.7 44 7.1 E 11 13 6 7 1018.1 1015.6 0.0
07/06:00am 21.0 19.3 9.9 49 6.1 ESE 9 13 5 7 1017.8 1015.3 0.0
07/05:30am 20.9 18.7 9.5 48 6.2 E 11 15 6 8 1017.3 1014.8 0.0
07/05:00am 20.9 18.7 9.5 48 6.2 E 11 15 6 8 1016.9 1014.4 0.0
07/04:30am 21.3 18.3 9.2 46 6.6 ESE 15 19 8 10 1016.6 1014.0 0.0
07/04:00am 21.7 18.7 9.3 45 6.7 ESE 15 17 8 9 1016.5 1013.9 0.0
07/03:30am 21.8 19.1 9.0 44 6.9 ESE 13 15 7 8 1016.3 1013.7 0.0
07/03:00am 22.1 19.7 8.6 42 7.3 E 11 13 6 7 1016.2 1013.6 0.0
07/02:30am 22.8 19.9 8.1 39 7.9 E 13 15 7 8 1016.0 1013.4 0.0
07/02:00am 23.1 20.1 7.6 37 8.2 ESE 13 17 7 9 1016.0 1013.4 0.0
07/01:30am 23.8 20.7 7.4 35 8.7 ESE 13 17 7 9 1015.7 1013.1 0.0
07/01:00am 24.4 21.3 7.1 33 9.2 ESE 13 17 7 9 1015.7 1013.1 0.0
07/12:30am 25.0 21.8 6.7 31 9.7 ESE 13 17 7 9 1015.7 1013.1 0.0
07/12:00am 25.9 22.2 6.5 29 10.3 E 15 20 8 11 1015.8 1013.2 0.0
 
Date/Time
WST
Temp
°C
App
Temp
°C
Dew
Point
Rel
Hum
%
Delta-T
°C
Wind Press
QNH
hPa
Press
MSL
hPa
Rain
since 9 am
mm
Dir
 
Spd
km/h
Gust
km/h
Spd
kts
Gust
kts
06/11:30pm 26.3 22.6 6.4 28 10.6 ESE 15 20 8 11 1015.9 1013.3 0.0
06/11:00pm 26.4 22.2 5.9 27 10.8 ESE 17 22 9 12 1015.9 1013.3 0.0
06/10:30pm 26.7 22.6 4.5 24 11.4 ESE 15 20 8 11 1015.9 1013.3 0.0
06/10:00pm 27.4 23.6 3.8 22 12.0 SE 13 17 7 9 1015.8 1013.2 0.0
06/09:30pm 27.8 23.5 3.5 21 12.4 SE 15 20 8 11 1015.8 1013.2 0.0
06/09:00pm 27.9 24.0 3.6 21 12.4 SE 13 19 7 10 1015.7 1013.1 0.0
06/08:30pm 28.3 24.5 3.9 21 12.5 SE 13 15 7 8 1015.5 1012.9 0.0
06/08:00pm 29.0 25.2 3.8 20 13.0 SE 13 15 7 8 1015.0 1012.5 0.0
06/07:30pm 29.7 25.6 2.1 17 13.9 SE 13 15 7 8 1014.9 1012.4 0.0
06/07:00pm 30.6 26.1 1.9 16 14.5 SE 15 24 8 13 1014.5 1012.0 0.0
06/06:30pm 31.7 26.1 1.0 14 15.3 ESE 20 30 11 16 1014.1 1011.5 0.0
06/06:00pm 32.5 27.2 -0.5 12 16.2 ESE 17 24 9 13 1013.8 1011.2 0.0
06/05:30pm 33.1 27.9 -0.1 12 16.4 E 17 26 9 14 1013.4 1010.8 0.0
06/05:00pm 33.0 27.6 -1.4 11 16.7 ESE 17 26 9 14 1013.2 1010.6 0.0
06/04:30pm 33.0 27.6 -1.4 11 16.7 ESE 17 24 9 13 1013.2 1010.6 0.0
06/04:00pm 32.6 27.9 0.6 13 16.0 ESE 15 24 8 13 1013.3 1010.7 0.0
06/03:30pm 33.0 27.8 -0.2 12 16.4 E 17 24 9 13 1013.4 1010.8 0.0
06/03:00pm 32.7 28.0 0.7 13 16.0 SE 15 24 8 13 1013.5 1010.9 0.0
06/02:30pm 32.5 28.1 0.6 13 15.9 SE 13 24 7 13 1013.8 1011.2 0.0
06/02:00pm 32.0 28.3 2.1 15 15.2 ESE 11 20 6 11 1014.1 1011.5 0.0
06/01:30pm 31.9 27.6 3.0 16 15.0 SE 15 22 8 12 1014.3 1011.7 0.0
06/01:00pm 31.1 26.8 3.2 17 14.4 ENE 15 22 8 12 1014.7 1012.2 0.0
06/12:30pm 30.0 25.7 3.1 18 13.8 ENE 15 24 8 13 1015.1 1012.6 0.0
06/12:00pm 30.6 26.4 3.6 18 14.0 ENE 15 22 8 12 1015.5 1012.9 0.0
06/11:30am 29.1 25.9 5.2 22 12.6 ESE 11 24 6 13 1016.0 1013.4 0.0
06/11:00am 29.4 26.4 6.1 23 12.5 ESE 11 22 6 12 1016.5 1013.9 0.0
06/10:30am 27.9 23.9 4.9 23 12.0 SE 15 24 8 13 1016.8 1014.2 0.0
06/10:00am 27.9 25.0 6.6 26 11.4 ESE 11 19 6 10 1016.9 1014.4 0.0
06/09:30am 26.9 24.1 6.9 28 10.7 NE 11 20 6 11 1017.2 1014.7 0.0
06/09:00am 26.4 24.0 6.9 29 10.4 ENE 9 19 5 10 1017.4 1014.9 0.0
06/08:30am 25.7 22.6 7.3 31 9.9 NE 13 20 7 11 1017.5 1015.0 0.0
06/08:00am 24.2 20.7 7.4 34 9.0 NE 15 20 8 11 1017.4 1014.9 0.0
06/07:30am 23.3 19.8 8.6 39 8.0 NE 17 20 9 11 1017.2 1014.7 0.0
06/07:00am 21.6 19.1 9.8 47 6.5 ENE 13 17 7 9 1017.0 1014.5 0.0
06/06:30am 20.3 18.8 10.4 53 5.5 E 9 13 5 7 1016.8 1014.2 0.0
06/06:00am 18.7 16.7 10.0 57 4.7 ESE 11 15 6 8 1016.5 1013.9 0.0
06/05:30am 18.1 16.4 10.0 59 4.4 ESE 9 13 5 7 1016.0 1013.4 0.0
06/05:00am 18.3 15.9 10.2 59 4.4 ESE 13 15 7 8 1015.3 1012.8 0.0
06/04:30am 18.1 16.5 10.2 60 4.3 ESE 9 11 5 6 1015.1 1012.6 0.0
06/04:00am 18.4 17.2 10.3 59 4.4 E 7 11 4 6 1014.8 1012.3 0.0
06/03:30am 19.3 17.7 10.3 56 4.9 E 9 13 5 7 1014.7 1012.2 0.0
06/03:00am 19.6 17.2 10.0 54 5.2 ESE 13 17 7 9 1014.6 1012.1 0.0
06/02:30am 20.1 17.7 10.2 53 5.4 ESE 13 17 7 9 1014.5 1012.0 0.0
06/02:00am 20.6 18.2 10.1 51 5.8 ESE 13 15 7 8 1014.7 1012.2 0.0
06/01:30am 21.0 18.6 10.2 50 6.0 ESE 13 17 7 9 1014.7 1012.2 0.0
06/01:00am 21.3 19.3 10.2 49 6.1 ESE 11 15 6 8 1014.9 1012.4 0.0
06/12:30am 21.9 19.5 10.1 47 6.5 ESE 13 17 7 9 1014.9 1012.4 0.0
06/12:00am 22.6 19.8 10.1 45 6.9 ESE 15 17 8 9 1015.2 1012.7 0.0
 
Date/Time
WST
Temp
°C
App
Temp
°C
Dew
Point
Rel
Hum
%
Delta-T
°C
Wind Press
QNH
hPa
Press
MSL
hPa
Rain
since 9 am
mm
Dir
 
Spd
km/h
Gust
km/h
Spd
kts
Gust
kts
05/11:30pm 22.9 20.0 9.7 43 7.3 ESE 15 17 8 9 1015.3 1012.8 0.0
05/11:00pm 23.3 20.7 9.3 41 7.7 ESE 13 17 7 9 1015.3 1012.8 0.0
05/10:30pm 24.1 22.1 8.5 37 8.5 ESE 9 13 5 7 1015.5 1012.9 0.0
05/10:00pm 24.4 21.9 8.4 36 8.7 ESE 11 15 6 8 1015.6 1013.0 0.0
05/09:30pm 24.9 22.7 8.0 34 9.1 SE 9 13 5 7 1015.7 1013.1 0.0
05/09:00pm 25.5 22.6 8.1 33 9.5 ESE 13 17 7 9 1015.3 1012.8 0.0
05/08:30pm 26.1 23.7 8.6 33 9.6 ESE 11 17 6 9 1015.3 1012.8 0.0
05/08:00pm 26.6 23.8 8.6 32 9.9 SE 13 20 7 11 1015.1 1012.6 0.0
05/07:30pm 27.3 24.0 8.2 30 10.5 SE 15 20 8 11 1014.9 1012.4 0.0
05/07:00pm 27.9 24.5 7.7 28 11.1 ESE 15 22 8 12 1014.6 1012.1 0.0
05/06:30pm 28.7 25.4 7.9 27 11.5 ESE 15 20 8 11 1014.3 1011.7 0.0
05/06:00pm 29.5 26.0 7.4 25 12.1 SE 15 24 8 13 1013.9 1011.3 0.0
05/05:30pm 29.6 25.8 5.6 22 12.8 SE 15 22 8 12 1013.7 1011.1 0.0
05/05:00pm 29.7 26.3 5.7 22 12.8 SE 13 24 7 13 1013.5 1010.9 0.0
05/04:30pm 29.6 25.3 6.9 24 12.4 E 19 26 10 14 1013.4 1010.8 0.0
05/04:00pm 29.8 26.3 7.1 24 12.4 E 15 24 8 13 1013.5 1010.9 0.0
05/03:30pm 29.4 26.0 6.1 23 12.5 E 13 24 7 13 1013.8 1011.2 0.0
05/03:00pm 29.5 25.9 6.8 24 12.3 SE 15 20 8 11 1013.9 1011.3 0.0
05/02:30pm 28.9 25.9 7.5 26 11.7 ESE 13 20 7 11 1014.2 1011.6 0.0
05/02:00pm 29.3 26.8 8.4 27 11.7 E 11 24 6 13 1014.5 1012.0 0.0
05/01:30pm 28.3 25.3 7.5 27 11.4 E 13 24 7 13 1014.9 1012.4 0.0
05/01:00pm 27.8 24.3 8.6 30 10.7 ENE 17 22 9 12 1015.5 1012.9 0.0
05/12:30pm 26.4 23.4 7.9 31 10.1 E 13 22 7 12 1016.0 1013.4 0.0
05/12:00pm 27.2 24.4 8.6 31 10.3 E 13 24 7 13 1016.5 1013.9 0.0
05/11:30am 25.8 22.2 8.3 33 9.6 NE 17 26 9 14 1017.1 1014.6 0.0
05/11:00am 24.9 21.3 8.4 35 9.0 E 17 28 9 15 1017.4 1014.9 0.0
05/10:30am 25.1 22.1 9.4 37 8.7 E 15 24 8 13 1018.0 1015.5 0.0
05/10:00am 24.3 21.8 9.8 40 8.1 NE 13 24 7 13 1018.4 1015.8 0.0
05/09:30am 23.3 20.1 10.0 43 7.4 ENE 17 24 9 13 1018.6 1016.0 0.0
05/09:00am 22.8 19.1 10.3 45 7.0 ENE 20 28 11 15 1018.6 1016.0 0.0
05/08:30am 21.7 17.9 9.9 47 6.5 ENE 20 30 11 16 1018.7 1016.1 0.0
05/08:00am 21.5 17.5 10.6 50 6.1 ENE 22 28 12 15 1018.7 1016.1 0.0
05/07:30am 20.5 15.8 10.6 53 5.5 ENE 26 33 14 18 1018.7 1016.1 0.0
05/07:00am 19.7 15.8 10.7 56 5.0 ENE 22 33 12 18 1018.5 1015.9 0.0
05/06:30am 18.5 16.9 11.6 64 3.9 E 11 15 6 8 1018.4 1015.8 0.0
05/06:00am 17.0 14.9 11.3 69 3.1 ESE 13 19 7 10 1018.1 1015.6 0.0
05/05:30am 16.3 14.2 11.0 71 2.9 ESE 13 17 7 9 1017.9 1015.4 0.0
05/05:00am 16.6 14.5 11.1 70 3.0 ESE 13 17 7 9 1017.6 1015.1 0.0
05/04:30am 16.9 14.8 11.0 68 3.2 ESE 13 17 7 9 1017.4 1014.9 0.0
05/04:00am 17.2 15.8 10.8 66 3.5 ESE 9 15 5 8 1017.1 1014.6 0.0
05/03:30am 17.9 15.6 10.5 62 4.0 ESE 13 17 7 9 1017.1 1014.6 0.0
05/03:00am 18.2 15.9 10.3 60 4.3 ESE 13 15 7 8 1017.2 1014.7 0.0
05/02:30am 18.6 16.2 10.2 58 4.6 ESE 13 19 7 10 1017.3 1014.8 0.0
05/02:00am 19.1 16.7 10.1 56 4.9 ESE 13 17 7 9 1017.6 1015.1 0.0
05/01:30am 19.5 17.1 10.0 54 5.2 ESE 13 19 7 10 1017.6 1015.1 0.0
05/01:00am 20.1 17.3 9.9 52 5.6 E 15 20 8 11 1017.8 1015.3 0.0
05/12:30am 20.6 17.0 9.8 50 5.9 E 19 26 10 14 1018.0 1015.5 0.0
05/12:00am 21.0 17.4 9.9 49 6.1 E 19 26 10 14 1018.1 1015.6 0.0
 
Date/Time
WST
Temp
°C
App
Temp
°C
Dew
Point
Rel
Hum
%
Delta-T
°C
Wind Press
QNH
hPa
Press
MSL
hPa
Rain
since 9 am
mm
Dir
 
Spd
km/h
Gust
km/h
Spd
kts
Gust
kts
04/11:30pm 21.4 17.5 9.6 47 6.4 E 20 33 11 18 1018.3 1015.7 0.0
04/11:00pm 21.8 18.0 9.7 46 6.6 E 20 28 11 15 1018.6 1016.0 0.0
04/10:30pm 22.4 17.3 9.2 43 7.2 E 26 39 14 21 1018.5 1015.9 0.0
04/10:00pm 22.8 18.9 8.5 40 7.7 E 19 35 10 19 1018.5 1015.9 0.0
04/09:30pm 23.5 19.4 8.0 37 8.3 E 19 28 10 15 1018.4 1015.8 0.0
04/09:00pm 24.0 20.3 8.0 36 8.6 E 17 24 9 13 1018.0 1015.5 0.0
04/08:30pm 24.4 21.0 7.5 34 9.0 ESE 15 20 8 11 1017.8 1015.3 0.0
04/08:00pm 25.1 21.1 6.8 31 9.7 ESE 17 24 9 13 1017.6 1015.1 0.0
04/07:30pm 25.5 21.5 6.7 30 10.0 ESE 17 22 9 12 1017.4 1014.9 0.0
04/07:00pm 26.0 21.5 7.1 30 10.1 ESE 20 30 11 16 1017.1 1014.6 0.0
04/06:30pm 26.6 22.3 7.1 29 10.5 ESE 19 28 10 15 1016.8 1014.2 0.0
04/06:00pm 27.1 22.6 7.0 28 10.8 ESE 20 32 11 17 1016.5 1013.9 0.0
04/05:30pm 27.7 23.2 7.0 27 11.2 ESE 20 28 11 15 1016.4 1013.8 0.0
04/05:00pm 27.9 23.1 7.2 27 11.2 E 22 35 12 19 1016.2 1013.6 0.0
04/04:30pm 28.0 22.8 7.3 27 11.3 ESE 24 33 13 18 1016.1 1013.5 0.0
04/04:00pm 27.8 23.2 6.6 26 11.4 E 20 33 11 18 1016.2 1013.6 0.0
04/03:30pm 28.2 23.9 8.0 28 11.1 E 20 32 11 17 1016.3 1013.7 0.0
04/03:00pm 27.8 23.8 8.1 29 10.8 E 19 33 10 18 1016.6 1014.0 0.0
04/02:30pm 28.0 23.9 8.8 30 10.7 E 20 32 11 17 1016.9 1014.4 0.0
04/02:00pm 27.4 23.2 8.3 30 10.5 ESE 20 41 11 22 1017.4 1014.9 0.0

Other Formats:

Comma delimited format used in spreadsheet applications
http://www.bom.gov.au/fwo/IDW60801/IDW60801.94450.axf

JavaScript Object Notation format (JSON) in row-major order
http://www.bom.gov.au/fwo/IDW60801/IDW60801.94450.json